sensor_id;sensor_type;location;lat;lon;timestamp;P1;durP1;ratioP1;P2;durP2;ratioP2
85208;SDS011;75586;44.496;0.166;2024-01-15T00:10:43;50.87;;;23.17;;
85208;SDS011;75586;44.496;0.166;2024-01-15T00:26:02;40.93;;;20.27;;
85208;SDS011;75586;44.496;0.166;2024-01-15T00:41:23;42.40;;;18.03;;
85208;SDS011;75586;44.496;0.166;2024-01-15T00:56:44;39.57;;;18.13;;
85208;SDS011;75586;44.496;0.166;2024-01-15T01:12:03;40.10;;;19.30;;
85208;SDS011;75586;44.496;0.166;2024-01-15T01:27:21;38.37;;;19.07;;
85208;SDS011;75586;44.496;0.166;2024-01-15T01:42:41;41.30;;;21.23;;
85208;SDS011;75586;44.496;0.166;2024-01-15T01:58:02;44.53;;;21.23;;
85208;SDS011;75586;44.496;0.166;2024-01-15T02:13:22;44.87;;;20.90;;
85208;SDS011;75586;44.496;0.166;2024-01-15T02:28:42;40.70;;;19.73;;
85208;SDS011;75586;44.496;0.166;2024-01-15T02:44:01;44.03;;;20.90;;
85208;SDS011;75586;44.496;0.166;2024-01-15T02:59:22;48.07;;;22.37;;
85208;SDS011;75586;44.496;0.166;2024-01-15T03:14:42;45.20;;;21.83;;
85208;SDS011;75586;44.496;0.166;2024-01-15T03:30:04;52.03;;;24.40;;
85208;SDS011;75586;44.496;0.166;2024-01-15T03:45:23;49.47;;;23.70;;
85208;SDS011;75586;44.496;0.166;2024-01-15T04:00:45;49.53;;;23.27;;
85208;SDS011;75586;44.496;0.166;2024-01-15T04:16:05;52.53;;;25.53;;
85208;SDS011;75586;44.496;0.166;2024-01-15T04:31:25;57.27;;;25.73;;
85208;SDS011;75586;44.496;0.166;2024-01-15T04:46:45;52.93;;;24.23;;
85208;SDS011;75586;44.496;0.166;2024-01-15T05:02:06;52.93;;;24.87;;
85208;SDS011;75586;44.496;0.166;2024-01-15T05:17:27;60.10;;;25.07;;
85208;SDS011;75586;44.496;0.166;2024-01-15T05:32:47;59.00;;;26.10;;
85208;SDS011;75586;44.496;0.166;2024-01-15T05:48:08;59.07;;;25.87;;
85208;SDS011;75586;44.496;0.166;2024-01-15T06:03:27;55.33;;;23.07;;
85208;SDS011;75586;44.496;0.166;2024-01-15T06:18:48;54.87;;;25.33;;
85208;SDS011;75586;44.496;0.166;2024-01-15T06:34:07;53.63;;;24.67;;
85208;SDS011;75586;44.496;0.166;2024-01-15T06:49:28;43.73;;;23.63;;
85208;SDS011;75586;44.496;0.166;2024-01-15T07:04:48;44.30;;;23.27;;
85208;SDS011;75586;44.496;0.166;2024-01-15T07:20:09;51.30;;;23.10;;
85208;SDS011;75586;44.496;0.166;2024-01-15T07:35:31;55.97;;;25.33;;
85208;SDS011;75586;44.496;0.166;2024-01-15T07:50:49;51.97;;;20.83;;
85208;SDS011;75586;44.496;0.166;2024-01-15T08:06:11;44.20;;;20.90;;
85208;SDS011;75586;44.496;0.166;2024-01-15T08:21:31;42.57;;;19.97;;
85208;SDS011;75586;44.496;0.166;2024-01-15T08:36:51;40.33;;;18.77;;
85208;SDS011;75586;44.496;0.166;2024-01-15T08:52:11;51.20;;;20.40;;
85208;SDS011;75586;44.496;0.166;2024-01-15T09:07:31;49.50;;;17.83;;
85208;SDS011;75586;44.496;0.166;2024-01-15T09:22:51;44.47;;;17.80;;
85208;SDS011;75586;44.496;0.166;2024-01-15T09:38:12;37.70;;;17.77;;
85208;SDS011;75586;44.496;0.166;2024-01-15T09:53:33;40.93;;;17.20;;
85208;SDS011;75586;44.496;0.166;2024-01-15T10:08:54;47.63;;;19.47;;
85208;SDS011;75586;44.496;0.166;2024-01-15T10:24:14;50.70;;;19.43;;
85208;SDS011;75586;44.496;0.166;2024-01-15T10:39:35;39.17;;;18.87;;
85208;SDS011;75586;44.496;0.166;2024-01-15T10:54:55;39.47;;;16.90;;
85208;SDS011;75586;44.496;0.166;2024-01-15T11:25:37;37.77;;;16.43;;
85208;SDS011;75586;44.496;0.166;2024-01-15T11:40:58;35.40;;;14.40;;
85208;SDS011;75586;44.496;0.166;2024-01-15T11:56:20;38.57;;;14.90;;
85208;SDS011;75586;44.496;0.166;2024-01-15T12:11:41;31.73;;;14.93;;
85208;SDS011;75586;44.496;0.166;2024-01-15T12:27:00;38.00;;;16.73;;
85208;SDS011;75586;44.496;0.166;2024-01-15T12:42:20;39.53;;;18.07;;
85208;SDS011;75586;44.496;0.166;2024-01-15T12:57:40;35.60;;;16.90;;
85208;SDS011;75586;44.496;0.166;2024-01-15T13:13:00;34.63;;;16.20;;
85208;SDS011;75586;44.496;0.166;2024-01-15T13:28:19;41.13;;;17.03;;
85208;SDS011;75586;44.496;0.166;2024-01-15T13:43:39;43.87;;;18.20;;
85208;SDS011;75586;44.496;0.166;2024-01-15T13:58:59;41.90;;;19.17;;
85208;SDS011;75586;44.496;0.166;2024-01-15T14:14:18;58.50;;;24.87;;
85208;SDS011;75586;44.496;0.166;2024-01-15T14:29:38;69.23;;;26.63;;
85208;SDS011;75586;44.496;0.166;2024-01-15T14:44:59;55.07;;;19.40;;
85208;SDS011;75586;44.496;0.166;2024-01-15T15:00:19;55.67;;;19.97;;
85208;SDS011;75586;44.496;0.166;2024-01-15T15:15:39;63.47;;;22.73;;
85208;SDS011;75586;44.496;0.166;2024-01-15T15:30:59;118.00;;;27.60;;
85208;SDS011;75586;44.496;0.166;2024-01-15T15:46:17;84.60;;;23.60;;
85208;SDS011;75586;44.496;0.166;2024-01-15T16:01:38;113.57;;;31.67;;
85208;SDS011;75586;44.496;0.166;2024-01-15T16:16:58;79.60;;;25.93;;
85208;SDS011;75586;44.496;0.166;2024-01-15T16:32:19;101.23;;;29.97;;
85208;SDS011;75586;44.496;0.166;2024-01-15T16:47:38;80.80;;;29.03;;
85208;SDS011;75586;44.496;0.166;2024-01-15T17:02:58;95.10;;;23.83;;
85208;SDS011;75586;44.496;0.166;2024-01-15T17:18:17;347.80;;;33.13;;
85208;SDS011;75586;44.496;0.166;2024-01-15T17:33:37;310.63;;;38.47;;
85208;SDS011;75586;44.496;0.166;2024-01-15T17:48:56;93.00;;;27.60;;
85208;SDS011;75586;44.496;0.166;2024-01-15T18:04:17;154.10;;;38.00;;
85208;SDS011;75586;44.496;0.166;2024-01-15T18:19:36;164.60;;;30.60;;
85208;SDS011;75586;44.496;0.166;2024-01-15T18:34:56;109.57;;;36.13;;
85208;SDS011;75586;44.496;0.166;2024-01-15T18:50:17;663.73;;;54.03;;
85208;SDS011;75586;44.496;0.166;2024-01-15T19:05:38;116.57;;;27.20;;
85208;SDS011;75586;44.496;0.166;2024-01-15T19:20:57;112.60;;;27.53;;
85208;SDS011;75586;44.496;0.166;2024-01-15T19:36:20;481.20;;;49.00;;
85208;SDS011;75586;44.496;0.166;2024-01-15T19:51:37;91.40;;;33.73;;
85208;SDS011;75586;44.496;0.166;2024-01-15T20:06:56;289.43;;;42.30;;
85208;SDS011;75586;44.496;0.166;2024-01-15T20:22:17;158.73;;;26.13;;
85208;SDS011;75586;44.496;0.166;2024-01-15T20:37:37;94.70;;;26.47;;
85208;SDS011;75586;44.496;0.166;2024-01-15T20:52:58;102.20;;;28.07;;
85208;SDS011;75586;44.496;0.166;2024-01-15T21:08:17;441.07;;;34.23;;
85208;SDS011;75586;44.496;0.166;2024-01-15T21:23:36;484.07;;;44.60;;
85208;SDS011;75586;44.496;0.166;2024-01-15T21:38:55;159.30;;;50.47;;
85208;SDS011;75586;44.496;0.166;2024-01-15T21:54:15;251.87;;;51.67;;
85208;SDS011;75586;44.496;0.166;2024-01-15T22:09:36;436.83;;;44.73;;
85208;SDS011;75586;44.496;0.166;2024-01-15T22:24:58;203.43;;;45.90;;
85208;SDS011;75586;44.496;0.166;2024-01-15T22:40:18;485.20;;;43.43;;
85208;SDS011;75586;44.496;0.166;2024-01-15T22:55:37;52.57;;;19.63;;
85208;SDS011;75586;44.496;0.166;2024-01-15T23:10:58;45.20;;;16.10;;
85208;SDS011;75586;44.496;0.166;2024-01-15T23:26:17;52.60;;;15.63;;
85208;SDS011;75586;44.496;0.166;2024-01-15T23:41:37;68.27;;;15.80;;
85208;SDS011;75586;44.496;0.166;2024-01-15T23:56:57;49.17;;;15.87;;
